sensor_id;sensor_type;location;lat;lon;timestamp;P1;durP1;ratioP1;P2;durP2;ratioP2
12385;SDS011;6257;57.634;18.310;2023-11-19T00:02:18;11.57;;;3.90;;
12385;SDS011;6257;57.634;18.310;2023-11-19T00:04:45;5.23;;;2.73;;
12385;SDS011;6257;57.634;18.310;2023-11-19T00:07:12;7.80;;;3.40;;
12385;SDS011;6257;57.634;18.310;2023-11-19T00:09:40;10.33;;;2.57;;
12385;SDS011;6257;57.634;18.310;2023-11-19T00:12:10;6.83;;;2.53;;
12385;SDS011;6257;57.634;18.310;2023-11-19T00:14:38;6.97;;;2.63;;
12385;SDS011;6257;57.634;18.310;2023-11-19T00:17:06;7.50;;;3.87;;
12385;SDS011;6257;57.634;18.310;2023-11-19T00:19:33;13.63;;;3.23;;
12385;SDS011;6257;57.634;18.310;2023-11-19T00:22:00;7.57;;;2.93;;
12385;SDS011;6257;57.634;18.310;2023-11-19T00:24:28;11.20;;;2.70;;
12385;SDS011;6257;57.634;18.310;2023-11-19T00:26:55;3.63;;;2.20;;
12385;SDS011;6257;57.634;18.310;2023-11-19T00:29:24;3.73;;;2.40;;
12385;SDS011;6257;57.634;18.310;2023-11-19T00:31:51;8.07;;;4.27;;
12385;SDS011;6257;57.634;18.310;2023-11-19T00:34:18;11.77;;;3.50;;
12385;SDS011;6257;57.634;18.310;2023-11-19T00:36:47;15.33;;;3.57;;
12385;SDS011;6257;57.634;18.310;2023-11-19T00:39:15;13.20;;;2.53;;
12385;SDS011;6257;57.634;18.310;2023-11-19T00:41:43;15.83;;;2.50;;
12385;SDS011;6257;57.634;18.310;2023-11-19T00:44:11;4.23;;;2.50;;
12385;SDS011;6257;57.634;18.310;2023-11-19T00:46:39;5.00;;;2.40;;
12385;SDS011;6257;57.634;18.310;2023-11-19T00:49:07;4.10;;;2.23;;
12385;SDS011;6257;57.634;18.310;2023-11-19T00:51:36;7.33;;;2.20;;
12385;SDS011;6257;57.634;18.310;2023-11-19T00:54:04;12.73;;;2.30;;
12385;SDS011;6257;57.634;18.310;2023-11-19T00:56:31;5.23;;;1.63;;
12385;SDS011;6257;57.634;18.310;2023-11-19T00:58:58;5.33;;;2.23;;
12385;SDS011;6257;57.634;18.310;2023-11-19T01:01:25;6.87;;;2.50;;
12385;SDS011;6257;57.634;18.310;2023-11-19T01:03:53;4.40;;;2.23;;
12385;SDS011;6257;57.634;18.310;2023-11-19T01:06:28;3.37;;;2.50;;
12385;SDS011;6257;57.634;18.310;2023-11-19T01:08:56;5.13;;;3.00;;
12385;SDS011;6257;57.634;18.310;2023-11-19T01:11:24;4.50;;;2.30;;
12385;SDS011;6257;57.634;18.310;2023-11-19T01:13:51;17.57;;;3.07;;
12385;SDS011;6257;57.634;18.310;2023-11-19T01:16:18;11.50;;;3.13;;
12385;SDS011;6257;57.634;18.310;2023-11-19T01:18:46;9.50;;;2.63;;
12385;SDS011;6257;57.634;18.310;2023-11-19T01:21:16;7.07;;;2.60;;
12385;SDS011;6257;57.634;18.310;2023-11-19T01:23:43;6.27;;;2.80;;
12385;SDS011;6257;57.634;18.310;2023-11-19T01:26:10;7.63;;;2.57;;
12385;SDS011;6257;57.634;18.310;2023-11-19T01:28:38;15.27;;;2.83;;
12385;SDS011;6257;57.634;18.310;2023-11-19T01:31:09;4.93;;;2.30;;
12385;SDS011;6257;57.634;18.310;2023-11-19T01:33:37;4.97;;;2.40;;
12385;SDS011;6257;57.634;18.310;2023-11-19T01:36:05;3.37;;;2.20;;
12385;SDS011;6257;57.634;18.310;2023-11-19T01:38:34;6.60;;;2.40;;
12385;SDS011;6257;57.634;18.310;2023-11-19T01:41:02;5.70;;;2.50;;
12385;SDS011;6257;57.634;18.310;2023-11-19T01:43:33;7.33;;;4.07;;
12385;SDS011;6257;57.634;18.310;2023-11-19T01:46:00;9.00;;;5.37;;
12385;SDS011;6257;57.634;18.310;2023-11-19T01:48:28;6.33;;;3.70;;
12385;SDS011;6257;57.634;18.310;2023-11-19T01:50:56;4.60;;;3.27;;
12385;SDS011;6257;57.634;18.310;2023-11-19T01:53:24;4.80;;;2.83;;
12385;SDS011;6257;57.634;18.310;2023-11-19T01:55:53;8.03;;;2.43;;
12385;SDS011;6257;57.634;18.310;2023-11-19T01:58:20;7.63;;;2.10;;
12385;SDS011;6257;57.634;18.310;2023-11-19T02:00:47;4.33;;;2.23;;
12385;SDS011;6257;57.634;18.310;2023-11-19T02:03:14;4.03;;;2.40;;
12385;SDS011;6257;57.634;18.310;2023-11-19T02:05:41;3.50;;;2.57;;
12385;SDS011;6257;57.634;18.310;2023-11-19T02:08:09;3.10;;;2.30;;
12385;SDS011;6257;57.634;18.310;2023-11-19T02:10:38;5.13;;;2.03;;
12385;SDS011;6257;57.634;18.310;2023-11-19T02:13:07;4.03;;;2.10;;
12385;SDS011;6257;57.634;18.310;2023-11-19T02:15:35;2.50;;;1.90;;
12385;SDS011;6257;57.634;18.310;2023-11-19T02:18:17;6.87;;;2.23;;
12385;SDS011;6257;57.634;18.310;2023-11-19T02:20:48;2.63;;;2.10;;
12385;SDS011;6257;57.634;18.310;2023-11-19T02:23:16;3.03;;;2.27;;
12385;SDS011;6257;57.634;18.310;2023-11-19T02:25:46;2.47;;;2.00;;
12385;SDS011;6257;57.634;18.310;2023-11-19T02:28:28;4.67;;;2.10;;
12385;SDS011;6257;57.634;18.310;2023-11-19T02:30:55;2.20;;;1.90;;
12385;SDS011;6257;57.634;18.310;2023-11-19T02:33:22;2.57;;;2.10;;
12385;SDS011;6257;57.634;18.310;2023-11-19T02:35:49;4.07;;;2.30;;
12385;SDS011;6257;57.634;18.310;2023-11-19T02:38:17;3.03;;;2.13;;
12385;SDS011;6257;57.634;18.310;2023-11-19T02:40:45;2.10;;;1.50;;
12385;SDS011;6257;57.634;18.310;2023-11-19T02:43:12;3.03;;;1.70;;
12385;SDS011;6257;57.634;18.310;2023-11-19T02:45:41;3.33;;;2.03;;
12385;SDS011;6257;57.634;18.310;2023-11-19T02:48:08;2.47;;;1.67;;
12385;SDS011;6257;57.634;18.310;2023-11-19T02:50:35;2.03;;;1.80;;
12385;SDS011;6257;57.634;18.310;2023-11-19T02:53:02;1.60;;;1.50;;
12385;SDS011;6257;57.634;18.310;2023-11-19T02:55:29;1.77;;;1.50;;
12385;SDS011;6257;57.634;18.310;2023-11-19T02:58:01;2.47;;;1.70;;
12385;SDS011;6257;57.634;18.310;2023-11-19T03:00:34;3.10;;;1.50;;
12385;SDS011;6257;57.634;18.310;2023-11-19T03:03:08;1.63;;;1.20;;
12385;SDS011;6257;57.634;18.310;2023-11-19T03:05:45;1.50;;;1.40;;
12385;SDS011;6257;57.634;18.310;2023-11-19T03:08:13;2.13;;;1.47;;
12385;SDS011;6257;57.634;18.310;2023-11-19T03:10:40;1.90;;;1.40;;
12385;SDS011;6257;57.634;18.310;2023-11-19T03:13:10;3.53;;;1.30;;
12385;SDS011;6257;57.634;18.310;2023-11-19T03:15:39;1.83;;;1.10;;
12385;SDS011;6257;57.634;18.310;2023-11-19T03:18:06;1.00;;;0.90;;
12385;SDS011;6257;57.634;18.310;2023-11-19T03:20:35;1.77;;;1.40;;
12385;SDS011;6257;57.634;18.310;2023-11-19T03:23:02;2.07;;;1.70;;
12385;SDS011;6257;57.634;18.310;2023-11-19T03:25:29;2.20;;;1.43;;
12385;SDS011;6257;57.634;18.310;2023-11-19T03:27:59;1.60;;;1.50;;
12385;SDS011;6257;57.634;18.310;2023-11-19T03:30:27;1.60;;;1.40;;
12385;SDS011;6257;57.634;18.310;2023-11-19T03:32:54;1.30;;;1.20;;
12385;SDS011;6257;57.634;18.310;2023-11-19T03:35:23;3.23;;;1.00;;
12385;SDS011;6257;57.634;18.310;2023-11-19T03:37:50;1.87;;;1.30;;
12385;SDS011;6257;57.634;18.310;2023-11-19T03:40:18;1.37;;;1.27;;
12385;SDS011;6257;57.634;18.310;2023-11-19T03:42:45;2.10;;;1.30;;
12385;SDS011;6257;57.634;18.310;2023-11-19T03:45:12;1.67;;;1.40;;
12385;SDS011;6257;57.634;18.310;2023-11-19T03:47:40;2.20;;;1.70;;
12385;SDS011;6257;57.634;18.310;2023-11-19T03:50:08;1.60;;;1.37;;
12385;SDS011;6257;57.634;18.310;2023-11-19T03:52:36;1.77;;;1.43;;
12385;SDS011;6257;57.634;18.310;2023-11-19T03:55:04;2.93;;;1.63;;
12385;SDS011;6257;57.634;18.310;2023-11-19T03:57:33;1.60;;;1.50;;
12385;SDS011;6257;57.634;18.310;2023-11-19T04:00:00;1.47;;;1.30;;
12385;SDS011;6257;57.634;18.310;2023-11-19T04:02:33;1.97;;;1.70;;
12385;SDS011;6257;57.634;18.310;2023-11-19T04:05:00;1.57;;;1.47;;
12385;SDS011;6257;57.634;18.310;2023-11-19T04:07:28;1.63;;;1.33;;
12385;SDS011;6257;57.634;18.310;2023-11-19T04:09:56;2.07;;;1.77;;
12385;SDS011;6257;57.634;18.310;2023-11-19T04:12:23;2.63;;;1.67;;
12385;SDS011;6257;57.634;18.310;2023-11-19T04:14:51;1.60;;;1.40;;
12385;SDS011;6257;57.634;18.310;2023-11-19T04:17:17;1.30;;;1.20;;
12385;SDS011;6257;57.634;18.310;2023-11-19T04:19:44;1.37;;;1.27;;
12385;SDS011;6257;57.634;18.310;2023-11-19T04:22:12;2.60;;;1.50;;
12385;SDS011;6257;57.634;18.310;2023-11-19T04:24:39;1.63;;;1.40;;
12385;SDS011;6257;57.634;18.310;2023-11-19T04:27:10;1.63;;;1.43;;
12385;SDS011;6257;57.634;18.310;2023-11-19T04:29:37;2.03;;;1.40;;
12385;SDS011;6257;57.634;18.310;2023-11-19T04:32:05;1.87;;;1.30;;
12385;SDS011;6257;57.634;18.310;2023-11-19T04:34:32;2.07;;;1.60;;
12385;SDS011;6257;57.634;18.310;2023-11-19T04:37:00;2.23;;;1.53;;
12385;SDS011;6257;57.634;18.310;2023-11-19T04:39:28;1.87;;;1.67;;
12385;SDS011;6257;57.634;18.310;2023-11-19T04:41:55;2.00;;;1.40;;
12385;SDS011;6257;57.634;18.310;2023-11-19T04:44:24;2.40;;;1.93;;
12385;SDS011;6257;57.634;18.310;2023-11-19T04:46:51;2.23;;;1.47;;
12385;SDS011;6257;57.634;18.310;2023-11-19T04:49:18;2.17;;;1.70;;
12385;SDS011;6257;57.634;18.310;2023-11-19T04:51:45;1.97;;;1.50;;
12385;SDS011;6257;57.634;18.310;2023-11-19T04:54:13;2.00;;;1.43;;
12385;SDS011;6257;57.634;18.310;2023-11-19T04:56:40;1.60;;;1.50;;
12385;SDS011;6257;57.634;18.310;2023-11-19T04:59:11;2.63;;;1.60;;
12385;SDS011;6257;57.634;18.310;2023-11-19T05:01:39;2.57;;;1.60;;
12385;SDS011;6257;57.634;18.310;2023-11-19T05:04:07;2.53;;;1.60;;
12385;SDS011;6257;57.634;18.310;2023-11-19T05:06:34;1.60;;;1.30;;
12385;SDS011;6257;57.634;18.310;2023-11-19T05:09:02;1.90;;;1.50;;
12385;SDS011;6257;57.634;18.310;2023-11-19T05:11:32;2.67;;;1.63;;
12385;SDS011;6257;57.634;18.310;2023-11-19T05:13:59;1.77;;;1.60;;
12385;SDS011;6257;57.634;18.310;2023-11-19T05:16:29;3.40;;;1.70;;
12385;SDS011;6257;57.634;18.310;2023-11-19T05:18:57;2.33;;;1.80;;
12385;SDS011;6257;57.634;18.310;2023-11-19T05:21:24;2.50;;;1.73;;
12385;SDS011;6257;57.634;18.310;2023-11-19T05:23:51;2.33;;;1.70;;
12385;SDS011;6257;57.634;18.310;2023-11-19T05:26:19;2.33;;;1.90;;
12385;SDS011;6257;57.634;18.310;2023-11-19T05:28:47;1.97;;;1.77;;
12385;SDS011;6257;57.634;18.310;2023-11-19T05:31:15;2.63;;;2.00;;
12385;SDS011;6257;57.634;18.310;2023-11-19T05:33:43;2.50;;;2.00;;
12385;SDS011;6257;57.634;18.310;2023-11-19T05:36:12;2.27;;;2.00;;
12385;SDS011;6257;57.634;18.310;2023-11-19T05:38:39;3.97;;;2.00;;
12385;SDS011;6257;57.634;18.310;2023-11-19T05:41:06;3.53;;;2.03;;
12385;SDS011;6257;57.634;18.310;2023-11-19T05:43:33;2.10;;;1.90;;
12385;SDS011;6257;57.634;18.310;2023-11-19T05:46:00;2.17;;;1.77;;
12385;SDS011;6257;57.634;18.310;2023-11-19T05:48:28;2.13;;;1.93;;
12385;SDS011;6257;57.634;18.310;2023-11-19T05:50:55;2.93;;;2.20;;
12385;SDS011;6257;57.634;18.310;2023-11-19T05:53:23;2.70;;;1.87;;
12385;SDS011;6257;57.634;18.310;2023-11-19T05:55:50;2.80;;;2.20;;
12385;SDS011;6257;57.634;18.310;2023-11-19T05:58:22;2.83;;;2.00;;
12385;SDS011;6257;57.634;18.310;2023-11-19T06:00:51;2.83;;;2.13;;
12385;SDS011;6257;57.634;18.310;2023-11-19T06:03:18;2.23;;;2.03;;
12385;SDS011;6257;57.634;18.310;2023-11-19T06:05:46;2.57;;;2.20;;
12385;SDS011;6257;57.634;18.310;2023-11-19T06:08:13;2.23;;;1.90;;
12385;SDS011;6257;57.634;18.310;2023-11-19T06:10:43;3.37;;;2.63;;
12385;SDS011;6257;57.634;18.310;2023-11-19T06:13:11;3.47;;;2.20;;
12385;SDS011;6257;57.634;18.310;2023-11-19T06:15:40;2.77;;;2.10;;
12385;SDS011;6257;57.634;18.310;2023-11-19T06:18:07;4.13;;;2.33;;
12385;SDS011;6257;57.634;18.310;2023-11-19T06:20:35;3.10;;;2.47;;
12385;SDS011;6257;57.634;18.310;2023-11-19T06:23:02;2.37;;;2.17;;
12385;SDS011;6257;57.634;18.310;2023-11-19T06:25:29;2.50;;;2.07;;
12385;SDS011;6257;57.634;18.310;2023-11-19T06:27:58;3.60;;;2.10;;
12385;SDS011;6257;57.634;18.310;2023-11-19T06:30:25;2.20;;;1.70;;
12385;SDS011;6257;57.634;18.310;2023-11-19T06:32:53;2.90;;;2.30;;
12385;SDS011;6257;57.634;18.310;2023-11-19T06:35:20;3.73;;;2.63;;
12385;SDS011;6257;57.634;18.310;2023-11-19T06:37:48;3.90;;;2.30;;
12385;SDS011;6257;57.634;18.310;2023-11-19T06:40:16;3.27;;;2.63;;
12385;SDS011;6257;57.634;18.310;2023-11-19T06:42:43;3.00;;;2.50;;
12385;SDS011;6257;57.634;18.310;2023-11-19T06:45:12;5.73;;;2.63;;
12385;SDS011;6257;57.634;18.310;2023-11-19T06:47:39;2.70;;;2.20;;
12385;SDS011;6257;57.634;18.310;2023-11-19T06:50:07;2.57;;;2.03;;
12385;SDS011;6257;57.634;18.310;2023-11-19T06:52:34;3.13;;;2.20;;
12385;SDS011;6257;57.634;18.310;2023-11-19T06:55:03;2.63;;;2.33;;
12385;SDS011;6257;57.634;18.310;2023-11-19T06:57:31;3.00;;;2.00;;
12385;SDS011;6257;57.634;18.310;2023-11-19T06:59:59;2.30;;;2.10;;
12385;SDS011;6257;57.634;18.310;2023-11-19T07:02:27;2.40;;;1.90;;
12385;SDS011;6257;57.634;18.310;2023-11-19T07:04:55;2.93;;;2.50;;
12385;SDS011;6257;57.634;18.310;2023-11-19T07:07:22;2.63;;;2.30;;
12385;SDS011;6257;57.634;18.310;2023-11-19T07:09:49;4.40;;;3.43;;
12385;SDS011;6257;57.634;18.310;2023-11-19T07:12:16;4.27;;;3.70;;
12385;SDS011;6257;57.634;18.310;2023-11-19T07:14:44;5.97;;;4.10;;
12385;SDS011;6257;57.634;18.310;2023-11-19T07:17:11;5.30;;;3.70;;
12385;SDS011;6257;57.634;18.310;2023-11-19T07:19:40;7.80;;;5.37;;
12385;SDS011;6257;57.634;18.310;2023-11-19T07:22:07;8.33;;;5.60;;
12385;SDS011;6257;57.634;18.310;2023-11-19T07:24:38;7.40;;;5.30;;
12385;SDS011;6257;57.634;18.310;2023-11-19T07:27:05;5.03;;;4.00;;
12385;SDS011;6257;57.634;18.310;2023-11-19T07:29:33;5.67;;;4.00;;
12385;SDS011;6257;57.634;18.310;2023-11-19T07:32:01;5.50;;;3.93;;
12385;SDS011;6257;57.634;18.310;2023-11-19T07:34:28;4.47;;;3.30;;
12385;SDS011;6257;57.634;18.310;2023-11-19T07:36:56;4.13;;;2.83;;
12385;SDS011;6257;57.634;18.310;2023-11-19T07:39:27;4.30;;;3.13;;
12385;SDS011;6257;57.634;18.310;2023-11-19T07:41:54;4.80;;;3.03;;
12385;SDS011;6257;57.634;18.310;2023-11-19T07:44:21;4.57;;;2.93;;
12385;SDS011;6257;57.634;18.310;2023-11-19T07:46:49;3.70;;;2.93;;
12385;SDS011;6257;57.634;18.310;2023-11-19T07:49:16;4.00;;;3.60;;
12385;SDS011;6257;57.634;18.310;2023-11-19T07:51:44;4.80;;;2.90;;
12385;SDS011;6257;57.634;18.310;2023-11-19T07:54:12;3.23;;;2.67;;
12385;SDS011;6257;57.634;18.310;2023-11-19T07:56:40;3.83;;;2.70;;
12385;SDS011;6257;57.634;18.310;2023-11-19T07:59:07;3.10;;;2.60;;
12385;SDS011;6257;57.634;18.310;2023-11-19T08:01:34;3.07;;;2.10;;
12385;SDS011;6257;57.634;18.310;2023-11-19T08:04:01;4.23;;;2.43;;
12385;SDS011;6257;57.634;18.310;2023-11-19T08:06:28;4.07;;;2.77;;
12385;SDS011;6257;57.634;18.310;2023-11-19T08:08:55;3.07;;;2.30;;
12385;SDS011;6257;57.634;18.310;2023-11-19T08:11:24;3.03;;;2.43;;
12385;SDS011;6257;57.634;18.310;2023-11-19T08:13:51;7.43;;;4.43;;
12385;SDS011;6257;57.634;18.310;2023-11-19T08:16:18;4.17;;;2.90;;
12385;SDS011;6257;57.634;18.310;2023-11-19T08:18:45;3.03;;;2.30;;
12385;SDS011;6257;57.634;18.310;2023-11-19T08:21:13;2.80;;;2.20;;
12385;SDS011;6257;57.634;18.310;2023-11-19T08:23:40;2.90;;;2.30;;
12385;SDS011;6257;57.634;18.310;2023-11-19T08:26:07;3.23;;;2.30;;
12385;SDS011;6257;57.634;18.310;2023-11-19T08:28:36;3.73;;;2.53;;
12385;SDS011;6257;57.634;18.310;2023-11-19T08:31:04;4.23;;;2.70;;
12385;SDS011;6257;57.634;18.310;2023-11-19T08:33:31;3.50;;;2.33;;
12385;SDS011;6257;57.634;18.310;2023-11-19T08:35:58;3.60;;;2.20;;
12385;SDS011;6257;57.634;18.310;2023-11-19T08:38:25;2.37;;;2.00;;
12385;SDS011;6257;57.634;18.310;2023-11-19T08:40:53;4.00;;;1.90;;
12385;SDS011;6257;57.634;18.310;2023-11-19T08:43:24;4.03;;;2.20;;
12385;SDS011;6257;57.634;18.310;2023-11-19T08:45:53;2.80;;;2.10;;
12385;SDS011;6257;57.634;18.310;2023-11-19T08:48:20;2.63;;;2.10;;
12385;SDS011;6257;57.634;18.310;2023-11-19T08:50:47;2.87;;;2.27;;
12385;SDS011;6257;57.634;18.310;2023-11-19T08:53:14;4.90;;;2.40;;
12385;SDS011;6257;57.634;18.310;2023-11-19T08:55:41;3.00;;;2.40;;
12385;SDS011;6257;57.634;18.310;2023-11-19T08:58:08;3.53;;;2.40;;
12385;SDS011;6257;57.634;18.310;2023-11-19T09:00:36;3.00;;;2.33;;
12385;SDS011;6257;57.634;18.310;2023-11-19T09:03:05;4.70;;;2.60;;
12385;SDS011;6257;57.634;18.310;2023-11-19T09:05:37;4.53;;;3.37;;
12385;SDS011;6257;57.634;18.310;2023-11-19T09:08:04;5.00;;;3.50;;
12385;SDS011;6257;57.634;18.310;2023-11-19T09:10:33;5.83;;;3.70;;
12385;SDS011;6257;57.634;18.310;2023-11-19T09:13:00;7.37;;;5.60;;
12385;SDS011;6257;57.634;18.310;2023-11-19T09:18:33;4.70;;;3.10;;
12385;SDS011;6257;57.634;18.310;2023-11-19T09:21:00;4.77;;;3.83;;
12385;SDS011;6257;57.634;18.310;2023-11-19T09:23:28;6.23;;;3.67;;
12385;SDS011;6257;57.634;18.310;2023-11-19T09:25:57;6.17;;;3.83;;
12385;SDS011;6257;57.634;18.310;2023-11-19T09:28:25;8.27;;;5.20;;
12385;SDS011;6257;57.634;18.310;2023-11-19T09:30:53;6.87;;;4.90;;
12385;SDS011;6257;57.634;18.310;2023-11-19T09:33:20;7.43;;;5.00;;
12385;SDS011;6257;57.634;18.310;2023-11-19T09:35:49;5.33;;;4.47;;
12385;SDS011;6257;57.634;18.310;2023-11-19T09:38:16;8.90;;;6.77;;
12385;SDS011;6257;57.634;18.310;2023-11-19T09:40:43;11.43;;;9.47;;
12385;SDS011;6257;57.634;18.310;2023-11-19T09:43:10;7.80;;;6.27;;
12385;SDS011;6257;57.634;18.310;2023-11-19T09:45:40;7.47;;;5.90;;
12385;SDS011;6257;57.634;18.310;2023-11-19T09:48:14;5.97;;;4.37;;
12385;SDS011;6257;57.634;18.310;2023-11-19T09:50:44;6.03;;;4.57;;
12385;SDS011;6257;57.634;18.310;2023-11-19T09:53:14;5.03;;;4.27;;
12385;SDS011;6257;57.634;18.310;2023-11-19T09:55:41;5.90;;;3.73;;
12385;SDS011;6257;57.634;18.310;2023-11-19T09:58:09;4.30;;;3.20;;
12385;SDS011;6257;57.634;18.310;2023-11-19T10:00:40;5.17;;;3.77;;
12385;SDS011;6257;57.634;18.310;2023-11-19T10:03:07;5.10;;;3.13;;
12385;SDS011;6257;57.634;18.310;2023-11-19T10:05:37;7.23;;;3.47;;
12385;SDS011;6257;57.634;18.310;2023-11-19T10:08:05;3.43;;;3.00;;
12385;SDS011;6257;57.634;18.310;2023-11-19T10:10:34;3.33;;;2.80;;
12385;SDS011;6257;57.634;18.310;2023-11-19T10:13:01;4.83;;;3.60;;
12385;SDS011;6257;57.634;18.310;2023-11-19T10:15:28;5.73;;;4.57;;
12385;SDS011;6257;57.634;18.310;2023-11-19T10:18:02;5.80;;;4.43;;
12385;SDS011;6257;57.634;18.310;2023-11-19T10:20:34;8.60;;;5.80;;
12385;SDS011;6257;57.634;18.310;2023-11-19T10:23:03;6.10;;;4.90;;
12385;SDS011;6257;57.634;18.310;2023-11-19T10:25:30;6.87;;;4.50;;
12385;SDS011;6257;57.634;18.310;2023-11-19T10:27:58;4.47;;;3.33;;
12385;SDS011;6257;57.634;18.310;2023-11-19T10:30:26;4.20;;;3.40;;
12385;SDS011;6257;57.634;18.310;2023-11-19T10:35:51;4.53;;;3.57;;
12385;SDS011;6257;57.634;18.310;2023-11-19T10:38:19;5.30;;;3.73;;
12385;SDS011;6257;57.634;18.310;2023-11-19T10:40:47;5.77;;;3.90;;
12385;SDS011;6257;57.634;18.310;2023-11-19T10:43:17;4.77;;;3.80;;
12385;SDS011;6257;57.634;18.310;2023-11-19T10:45:44;5.00;;;4.07;;
12385;SDS011;6257;57.634;18.310;2023-11-19T10:48:12;5.83;;;4.40;;
12385;SDS011;6257;57.634;18.310;2023-11-19T10:50:39;6.73;;;4.70;;
12385;SDS011;6257;57.634;18.310;2023-11-19T10:53:07;7.27;;;5.00;;
12385;SDS011;6257;57.634;18.310;2023-11-19T10:55:36;6.37;;;4.30;;
12385;SDS011;6257;57.634;18.310;2023-11-19T10:58:04;6.40;;;4.73;;
12385;SDS011;6257;57.634;18.310;2023-11-19T11:00:36;5.73;;;4.47;;
12385;SDS011;6257;57.634;18.310;2023-11-19T11:03:08;5.20;;;3.77;;
12385;SDS011;6257;57.634;18.310;2023-11-19T11:05:41;4.77;;;3.77;;
12385;SDS011;6257;57.634;18.310;2023-11-19T11:08:09;4.47;;;3.80;;
12385;SDS011;6257;57.634;18.310;2023-11-19T11:10:39;5.37;;;3.33;;
12385;SDS011;6257;57.634;18.310;2023-11-19T11:13:09;4.47;;;3.57;;
12385;SDS011;6257;57.634;18.310;2023-11-19T11:15:39;4.67;;;3.70;;
12385;SDS011;6257;57.634;18.310;2023-11-19T11:18:08;6.57;;;4.93;;
12385;SDS011;6257;57.634;18.310;2023-11-19T11:20:35;6.63;;;4.90;;
12385;SDS011;6257;57.634;18.310;2023-11-19T11:26:13;6.07;;;4.93;;
12385;SDS011;6257;57.634;18.310;2023-11-19T11:28:53;6.93;;;4.77;;
12385;SDS011;6257;57.634;18.310;2023-11-19T11:31:29;7.47;;;5.07;;
12385;SDS011;6257;57.634;18.310;2023-11-19T11:34:10;6.50;;;4.73;;
12385;SDS011;6257;57.634;18.310;2023-11-19T11:37:10;5.73;;;4.97;;
12385;SDS011;6257;57.634;18.310;2023-11-19T11:39:45;8.90;;;5.00;;
12385;SDS011;6257;57.634;18.310;2023-11-19T11:42:31;5.97;;;4.60;;
12385;SDS011;6257;57.634;18.310;2023-11-19T11:44:59;5.47;;;4.93;;
12385;SDS011;6257;57.634;18.310;2023-11-19T11:50:29;6.10;;;4.70;;
12385;SDS011;6257;57.634;18.310;2023-11-19T11:53:16;5.07;;;4.30;;
12385;SDS011;6257;57.634;18.310;2023-11-19T11:55:52;4.63;;;4.10;;
12385;SDS011;6257;57.634;18.310;2023-11-19T11:58:21;5.10;;;3.93;;
12385;SDS011;6257;57.634;18.310;2023-11-19T12:00:52;4.73;;;3.63;;
12385;SDS011;6257;57.634;18.310;2023-11-19T12:03:19;3.63;;;3.30;;
12385;SDS011;6257;57.634;18.310;2023-11-19T12:05:49;6.03;;;4.07;;
12385;SDS011;6257;57.634;18.310;2023-11-19T12:08:24;3.70;;;3.30;;
12385;SDS011;6257;57.634;18.310;2023-11-19T12:13:42;4.53;;;3.10;;
12385;SDS011;6257;57.634;18.310;2023-11-19T12:16:14;4.60;;;2.83;;
12385;SDS011;6257;57.634;18.310;2023-11-19T12:18:42;4.83;;;3.37;;
12385;SDS011;6257;57.634;18.310;2023-11-19T12:21:11;2.67;;;2.47;;
12385;SDS011;6257;57.634;18.310;2023-11-19T12:23:53;4.40;;;3.03;;
12385;SDS011;6257;57.634;18.310;2023-11-19T12:26:21;3.30;;;2.67;;
12385;SDS011;6257;57.634;18.310;2023-11-19T12:29:00;4.33;;;2.60;;
12385;SDS011;6257;57.634;18.310;2023-11-19T12:31:31;4.50;;;2.77;;
12385;SDS011;6257;57.634;18.310;2023-11-19T12:34:01;3.60;;;2.30;;
12385;SDS011;6257;57.634;18.310;2023-11-19T12:36:39;2.30;;;2.10;;
12385;SDS011;6257;57.634;18.310;2023-11-19T12:39:10;2.60;;;2.20;;
12385;SDS011;6257;57.634;18.310;2023-11-19T12:41:49;2.77;;;2.43;;
12385;SDS011;6257;57.634;18.310;2023-11-19T12:44:20;2.70;;;2.30;;
12385;SDS011;6257;57.634;18.310;2023-11-19T12:46:58;2.90;;;2.60;;
12385;SDS011;6257;57.634;18.310;2023-11-19T12:49:26;4.00;;;2.37;;
12385;SDS011;6257;57.634;18.310;2023-11-19T12:51:55;4.13;;;3.10;;
12385;SDS011;6257;57.634;18.310;2023-11-19T12:54:31;2.27;;;2.00;;
12385;SDS011;6257;57.634;18.310;2023-11-19T12:56:59;3.23;;;2.10;;
12385;SDS011;6257;57.634;18.310;2023-11-19T12:59:26;2.83;;;2.10;;
12385;SDS011;6257;57.634;18.310;2023-11-19T13:01:53;3.07;;;1.90;;
12385;SDS011;6257;57.634;18.310;2023-11-19T13:04:21;2.57;;;1.70;;
12385;SDS011;6257;57.634;18.310;2023-11-19T13:06:49;3.63;;;2.10;;
12385;SDS011;6257;57.634;18.310;2023-11-19T13:09:24;3.93;;;2.03;;
12385;SDS011;6257;57.634;18.310;2023-11-19T13:11:52;2.60;;;2.00;;
12385;SDS011;6257;57.634;18.310;2023-11-19T13:14:20;2.20;;;2.00;;
12385;SDS011;6257;57.634;18.310;2023-11-19T13:16:47;2.30;;;2.10;;
12385;SDS011;6257;57.634;18.310;2023-11-19T13:19:14;3.57;;;2.30;;
12385;SDS011;6257;57.634;18.310;2023-11-19T13:21:43;2.10;;;1.90;;
12385;SDS011;6257;57.634;18.310;2023-11-19T13:24:13;2.80;;;2.13;;
12385;SDS011;6257;57.634;18.310;2023-11-19T13:26:41;3.80;;;2.67;;
12385;SDS011;6257;57.634;18.310;2023-11-19T13:29:08;3.13;;;2.60;;
12385;SDS011;6257;57.634;18.310;2023-11-19T13:31:36;2.73;;;2.40;;
12385;SDS011;6257;57.634;18.310;2023-11-19T13:34:03;3.30;;;2.60;;
12385;SDS011;6257;57.634;18.310;2023-11-19T13:36:32;3.10;;;2.60;;
12385;SDS011;6257;57.634;18.310;2023-11-19T13:38:59;2.77;;;2.33;;
12385;SDS011;6257;57.634;18.310;2023-11-19T13:41:26;3.20;;;2.50;;
12385;SDS011;6257;57.634;18.310;2023-11-19T13:43:55;3.13;;;2.70;;
12385;SDS011;6257;57.634;18.310;2023-11-19T13:46:22;6.20;;;3.03;;
12385;SDS011;6257;57.634;18.310;2023-11-19T13:48:48;5.03;;;3.67;;
12385;SDS011;6257;57.634;18.310;2023-11-19T13:51:15;8.43;;;5.27;;
12385;SDS011;6257;57.634;18.310;2023-11-19T13:53:43;4.80;;;3.80;;
12385;SDS011;6257;57.634;18.310;2023-11-19T13:56:10;6.20;;;4.43;;
12385;SDS011;6257;57.634;18.310;2023-11-19T13:58:37;4.30;;;3.03;;
12385;SDS011;6257;57.634;18.310;2023-11-19T14:01:06;3.40;;;2.53;;
12385;SDS011;6257;57.634;18.310;2023-11-19T14:03:34;3.87;;;2.60;;
12385;SDS011;6257;57.634;18.310;2023-11-19T14:06:01;3.47;;;2.30;;
12385;SDS011;6257;57.634;18.310;2023-11-19T14:20:19;6.17;;;4.87;;
12385;SDS011;6257;57.634;18.310;2023-11-19T14:22:46;5.03;;;3.83;;
12385;SDS011;6257;57.634;18.310;2023-11-19T14:25:15;4.60;;;3.37;;
12385;SDS011;6257;57.634;18.310;2023-11-19T14:27:42;5.70;;;4.30;;
12385;SDS011;6257;57.634;18.310;2023-11-19T14:30:11;5.23;;;4.50;;
12385;SDS011;6257;57.634;18.310;2023-11-19T14:32:39;4.80;;;3.70;;
12385;SDS011;6257;57.634;18.310;2023-11-19T14:35:07;4.43;;;3.23;;
12385;SDS011;6257;57.634;18.310;2023-11-19T14:37:36;4.90;;;3.43;;
12385;SDS011;6257;57.634;18.310;2023-11-19T14:40:03;3.83;;;3.40;;
12385;SDS011;6257;57.634;18.310;2023-11-19T14:42:32;6.20;;;3.13;;
12385;SDS011;6257;57.634;18.310;2023-11-19T14:44:59;5.23;;;3.60;;
12385;SDS011;6257;57.634;18.310;2023-11-19T14:47:26;5.43;;;3.27;;
12385;SDS011;6257;57.634;18.310;2023-11-19T14:49:54;6.43;;;4.00;;
12385;SDS011;6257;57.634;18.310;2023-11-19T14:52:21;5.00;;;4.27;;
12385;SDS011;6257;57.634;18.310;2023-11-19T14:54:51;4.77;;;3.93;;
12385;SDS011;6257;57.634;18.310;2023-11-19T14:57:21;3.50;;;3.20;;
12385;SDS011;6257;57.634;18.310;2023-11-19T14:59:48;3.40;;;2.70;;
12385;SDS011;6257;57.634;18.310;2023-11-19T15:02:16;3.97;;;3.00;;
12385;SDS011;6257;57.634;18.310;2023-11-19T15:04:44;2.87;;;2.67;;
12385;SDS011;6257;57.634;18.310;2023-11-19T15:07:11;4.10;;;3.00;;
12385;SDS011;6257;57.634;18.310;2023-11-19T15:09:38;3.60;;;2.87;;
12385;SDS011;6257;57.634;18.310;2023-11-19T15:12:07;4.23;;;2.40;;
12385;SDS011;6257;57.634;18.310;2023-11-19T15:14:35;3.17;;;2.40;;
12385;SDS011;6257;57.634;18.310;2023-11-19T15:17:03;4.03;;;2.40;;
12385;SDS011;6257;57.634;18.310;2023-11-19T15:19:31;3.47;;;2.30;;
12385;SDS011;6257;57.634;18.310;2023-11-19T15:21:59;3.60;;;2.77;;
12385;SDS011;6257;57.634;18.310;2023-11-19T15:24:29;3.17;;;2.63;;